Time;durP1;ratioP1;P1;durP2;ratioP2;P2;SDS_P1;SDS_P2;PMS_P1;PMS_P2;Temp;Humidity;BMP_temperature;BMP_pressure;BME280_temperature;BME280_humidity;BME280_pressure;Samples;Min_cycle;Max_cycle;Signal;HPM_P1;HPM_P2
2022/07/10 00:01:48;;;;;;;6.40;1.92;;;;;;;14.65;100.00;102402.09;5035503;28;20045;-77
2022/07/10 00:04:13;;;;;;;5.85;1.63;;;;;;;14.73;100.00;102400.69;5047225;28;20064;-77
2022/07/10 00:06:41;;;;;;;6.85;1.95;;;;;;;14.53;100.00;102395.56;5034123;28;20469;-77
2022/07/10 00:09:07;;;;;;;9.18;1.80;;;;;;;14.41;100.00;102401.94;5027697;28;22064;-77
2022/07/10 00:11:33;;;;;;;9.98;1.63;;;;;;;14.30;100.00;102399.94;5051267;28;20068;-77
2022/07/10 00:14:00;;;;;;;9.25;1.65;;;;;;;14.41;100.00;102399.16;5036567;28;20041;-77
2022/07/10 00:16:25;;;;;;;8.20;2.35;;;;;;;14.33;100.00;102388.72;5044459;28;20040;-77
2022/07/10 00:18:51;;;;;;;14.77;2.20;;;;;;;14.39;100.00;102394.78;5040536;28;20045;-77
2022/07/10 00:21:17;;;;;;;11.50;2.50;;;;;;;14.37;100.00;102394.00;5040610;28;20033;-77
2022/07/10 00:23:42;;;;;;;9.77;1.70;;;;;;;14.42;100.00;102397.31;5052857;28;20538;-77
2022/07/10 00:26:09;;;;;;;11.63;1.95;;;;;;;14.47;100.00;102376.69;5046456;28;20037;-77
2022/07/10 00:28:35;;;;;;;4.93;1.70;;;;;;;14.51;100.00;102386.53;5033139;28;20095;-77
2022/07/10 00:31:00;;;;;;;14.00;2.53;;;;;;;14.48;100.00;102388.63;5039598;28;20040;-77
2022/07/10 00:33:27;;;;;;;6.85;1.55;;;;;;;14.61;100.00;102383.13;5036566;28;20045;-77
2022/07/10 00:35:53;;;;;;;5.70;2.05;;;;;;;14.72;100.00;102386.00;5033063;28;20044;-77
2022/07/10 00:38:19;;;;;;;6.93;1.92;;;;;;;14.65;100.00;102381.94;5042152;28;20040;-77
2022/07/10 00:40:44;;;;;;;9.20;2.17;;;;;;;14.70;100.00;102388.84;5055246;28;20041;-77
2022/07/10 00:43:10;;;;;;;8.60;1.60;;;;;;;14.62;100.00;102380.25;5045174;28;20038;-77
2022/07/10 00:45:36;;;;;;;6.07;1.50;;;;;;;14.75;100.00;102383.00;5044712;28;20036;-77
2022/07/10 00:48:02;;;;;;;10.82;2.35;;;;;;;14.71;100.00;102384.25;5035236;28;20095;-76
2022/07/10 00:50:28;;;;;;;14.43;3.13;;;;;;;14.72;100.00;102382.38;5035706;28;20571;-77
2022/07/10 00:52:54;;;;;;;8.90;2.53;;;;;;;14.68;100.00;102384.47;5044560;28;20040;-77
2022/07/10 00:55:20;;;;;;;10.98;2.00;;;;;;;14.81;100.00;102373.44;5046368;28;20033;-77
2022/07/10 00:57:46;;;;;;;7.85;1.58;;;;;;;14.64;100.00;102374.63;5039895;28;20040;-77
2022/07/10 01:00:11;;;;;;;12.60;1.77;;;;;;;14.51;100.00;102371.84;5037720;28;20492;-77
2022/07/10 01:02:44;;;;;;;8.68;1.92;;;;;;;14.61;100.00;102372.09;5040984;28;20089;-77
2022/07/10 01:05:10;;;;;;;8.67;1.63;;;;;;;14.70;100.00;102371.44;5034316;28;20550;-77
2022/07/10 01:07:36;;;;;;;8.77;1.58;;;;;;;14.65;100.00;102385.56;5041714;28;20539;-77
2022/07/10 01:10:02;;;;;;;6.47;1.38;;;;;;;14.64;100.00;102363.59;5039245;28;20051;-77
2022/07/10 01:12:28;;;;;;;10.20;1.65;;;;;;;14.66;100.00;102361.66;5049048;28;20064;-77
2022/07/10 01:14:55;;;;;;;8.95;1.83;;;;;;;14.57;100.00;102363.13;5037089;28;20116;-77
2022/07/10 01:17:21;;;;;;;15.57;1.83;;;;;;;14.45;100.00;102350.25;5048558;28;20041;-77
2022/07/10 01:19:46;;;;;;;9.88;1.63;;;;;;;14.41;100.00;102344.06;5036751;28;20035;-77
2022/07/10 01:22:12;;;;;;;15.20;1.98;;;;;;;14.37;100.00;102347.16;5033687;28;20037;-77
2022/07/10 01:24:37;;;;;;;6.32;1.70;;;;;;;14.29;100.00;102348.56;5033042;28;20094;-77
2022/07/10 01:27:03;;;;;;;9.93;1.85;;;;;;;14.25;100.00;102340.63;5039671;28;20077;-77
2022/07/10 01:29:29;;;;;;;8.63;1.60;;;;;;;14.14;100.00;102342.28;5031374;28;20060;-77
2022/07/10 01:31:55;;;;;;;5.47;1.80;;;;;;;14.03;100.00;102347.66;5033842;28;20107;-77
2022/07/10 01:34:21;;;;;;;5.55;1.40;;;;;;;14.06;100.00;102346.56;5042582;28;20041;-77
2022/07/10 01:36:47;;;;;;;11.20;1.73;;;;;;;14.05;100.00;102339.28;5049779;28;20499;-77
2022/07/10 01:39:13;;;;;;;5.57;1.63;;;;;;;14.09;100.00;102341.72;5035866;28;20147;-77
2022/07/10 01:41:39;;;;;;;5.43;2.03;;;;;;;14.08;100.00;102334.44;5042740;28;20037;-77
2022/07/10 01:44:04;;;;;;;11.68;3.03;;;;;;;14.05;100.00;102336.53;5050029;28;20036;-77
2022/07/10 01:46:30;;;;;;;12.93;2.25;;;;;;;14.10;100.00;102331.59;5051731;28;20392;-77
2022/07/10 01:48:56;;;;;;;7.53;2.72;;;;;;;14.10;100.00;102328.81;5037044;28;20044;-77
2022/07/10 01:51:22;;;;;;;8.57;2.35;;;;;;;14.13;100.00;102329.53;5035748;28;20552;-77
2022/07/10 01:53:48;;;;;;;13.40;3.03;;;;;;;14.10;100.00;102331.59;5035892;28;20128;-77
2022/07/10 01:56:14;;;;;;;13.98;2.72;;;;;;;14.09;100.00;102325.19;5052157;28;20213;-77
2022/07/10 01:58:40;;;;;;;9.45;2.58;;;;;;;14.13;100.00;102332.28;5033683;28;20539;-77
2022/07/10 02:01:06;;;;;;;8.73;2.72;;;;;;;14.20;100.00;102331.81;5032824;28;20041;-77
2022/07/10 02:06:16;;;;;;;5.45;2.15;;;;;;;14.16;100.00;102323.75;5036936;28;20041;-77
2022/07/10 02:08:42;;;;;;;12.50;2.78;;;;;;;14.13;100.00;102334.13;5043535;28;20404;-77
2022/07/10 02:11:07;;;;;;;14.68;2.30;;;;;;;14.03;100.00;102327.50;5039341;28;20041;-78
2022/07/10 02:13:32;;;;;;;8.60;1.90;;;;;;;14.08;100.00;102334.44;5038141;28;20037;-77
2022/07/10 02:15:58;;;;;;;7.32;2.25;;;;;;;14.12;100.00;102333.25;5049492;28;20559;-77
2022/07/10 02:18:24;;;;;;;8.00;2.10;;;;;;;14.13;100.00;102336.88;5036312;28;20037;-77
2022/07/10 02:20:51;;;;;;;8.70;2.35;;;;;;;14.15;100.00;102329.41;5064402;28;20052;-77
2022/07/10 02:23:17;;;;;;;8.95;2.05;;;;;;;14.07;100.00;102326.28;5068421;28;20067;-77
2022/07/10 02:25:43;;;;;;;12.05;2.65;;;;;;;14.08;100.00;102330.81;5060844;28;20492;-77
2022/07/10 02:28:08;;;;;;;12.25;2.30;;;;;;;14.10;100.00;102331.59;5046621;28;20037;-77
2022/07/10 02:30:34;;;;;;;9.50;2.88;;;;;;;14.12;100.00;102329.63;5063185;28;20040;-77
2022/07/10 02:33:00;;;;;;;9.90;3.58;;;;;;;14.14;100.00;102325.75;5055890;28;20024;-77
2022/07/10 02:35:25;;;;;;;9.73;2.08;;;;;;;14.06;100.00;102319.03;5011766;28;20053;-77
2022/07/10 02:37:51;;;;;;;10.18;2.72;;;;;;;14.18;100.00;102322.78;5036687;28;20041;-77
2022/07/10 02:40:17;;;;;;;8.02;2.60;;;;;;;14.06;100.00;102325.41;5039172;28;20496;-77
2022/07/10 02:42:42;;;;;;;9.50;2.35;;;;;;;14.12;100.00;102318.59;5038066;28;20083;-77
2022/07/10 02:45:08;;;;;;;10.25;2.80;;;;;;;14.09;100.00;102322.44;5043693;28;20075;-77
2022/07/10 02:47:34;;;;;;;11.35;2.70;;;;;;;14.18;100.00;102322.78;5044230;28;20488;-77
2022/07/10 02:50:00;;;;;;;17.38;3.50;;;;;;;14.01;100.00;102319.34;5023098;28;20542;-77
2022/07/10 02:52:25;;;;;;;8.98;2.83;;;;;;;14.14;100.00;102323.00;5042934;28;20044;-77
2022/07/10 02:54:51;;;;;;;12.40;2.78;;;;;;;13.98;100.00;102308.53;5043435;28;20079;-77
2022/07/10 02:57:17;;;;;;;11.00;2.60;;;;;;;14.03;100.00;102320.13;5037272;28;20064;-77
2022/07/10 02:59:42;;;;;;;12.07;3.22;;;;;;;14.15;100.00;102322.03;5046194;28;20052;-77
2022/07/10 03:02:08;;;;;;;11.50;3.13;;;;;;;14.01;100.00;102318.47;5049062;28;20147;-77
2022/07/10 03:04:33;;;;;;;12.32;2.58;;;;;;;13.95;100.00;102317.03;5038267;28;20033;-77
2022/07/10 03:06:59;;;;;;;12.95;3.20;;;;;;;13.92;100.00;102317.22;5021394;28;20034;-77
2022/07/10 03:09:25;;;;;;;9.18;2.58;;;;;;;14.06;100.00;102319.91;5043900;28;20052;-77
2022/07/10 03:11:51;;;;;;;7.35;2.92;;;;;;;14.10;100.00;102318.72;5035905;28;20041;-77
2022/07/10 03:14:17;;;;;;;12.20;3.20;;;;;;;14.07;100.00;102318.03;5043539;28;20033;-77
2022/07/10 03:16:43;;;;;;;8.05;2.90;;;;;;;14.00;100.00;102308.44;5048762;28;20048;-77
2022/07/10 03:19:08;;;;;;;10.60;3.13;;;;;;;13.96;100.00;102307.78;5037435;28;20346;-77
2022/07/10 03:21:34;;;;;;;11.77;3.20;;;;;;;13.92;100.00;102306.22;5053722;28;20033;-77
2022/07/10 03:23:59;;;;;;;12.10;3.55;;;;;;;13.92;100.00;102300.72;5049729;28;20038;-77
2022/07/10 03:26:26;;;;;;;16.30;3.30;;;;;;;13.95;100.00;102309.66;5038595;28;20036;-77
2022/07/10 03:28:52;;;;;;;10.82;3.08;;;;;;;14.05;100.00;102315.41;5048914;28;20033;-77
2022/07/10 03:31:17;;;;;;;14.57;3.08;;;;;;;14.04;100.00;102313.63;5036442;28;20044;-77
2022/07/10 03:33:43;;;;;;;8.80;2.92;;;;;;;13.99;100.00;102307.56;5034882;28;20124;-77
2022/07/10 03:36:08;;;;;;;11.65;3.17;;;;;;;14.06;100.00;102308.00;5039081;28;20192;-77
2022/07/10 03:38:34;;;;;;;12.80;3.30;;;;;;;13.98;100.00;102311.31;5004421;28;20538;-77
2022/07/10 03:40:59;;;;;;;14.05;3.63;;;;;;;14.00;100.00;102308.44;5043159;28;20037;-77
2022/07/10 03:43:25;;;;;;;13.52;3.45;;;;;;;13.97;100.00;102312.31;5051585;28;20037;-77
2022/07/10 03:45:51;;;;;;;14.13;2.92;;;;;;;13.96;100.00;102316.91;5037135;28;20041;-77
2022/07/10 03:48:16;;;;;;;14.48;3.10;;;;;;;13.89;100.00;102306.47;5034627;28;20044;-77
2022/07/10 03:50:42;;;;;;;14.55;2.92;;;;;;;13.92;100.00;102306.22;5045321;28;20052;-77
2022/07/10 03:53:08;;;;;;;10.80;3.80;;;;;;;13.87;100.00;102297.41;5055731;28;20033;-77
2022/07/10 03:55:33;;;;;;;9.48;2.92;;;;;;;14.08;100.00;102297.75;5054083;28;20029;-77
2022/07/10 03:58:05;;;;;;;12.57;4.00;;;;;;;13.93;100.00;102302.47;5038043;28;20086;-77
2022/07/10 04:00:34;;;;;;;8.85;3.30;;;;;;;13.94;100.00;102290.50;5046327;28;20033;-77
2022/07/10 04:03:02;;;;;;;9.40;2.90;;;;;;;13.82;100.00;102299.59;5020025;28;20112;-77
2022/07/10 04:05:29;;;;;;;8.60;2.95;;;;;;;13.89;100.00;102300.94;5041959;28;20032;-77
2022/07/10 04:07:56;;;;;;;13.55;2.80;;;;;;;13.92;100.00;102289.69;5027072;28;20025;-77
2022/07/10 04:10:23;;;;;;;14.45;3.33;;;;;;;13.99;100.00;102293.81;5041100;28;20029;-77
2022/07/10 04:12:48;;;;;;;7.97;3.08;;;;;;;14.05;100.00;102295.22;5041478;28;20055;-77
2022/07/10 04:15:15;;;;;;;16.25;3.83;;;;;;;14.04;100.00;102291.59;5048349;28;20041;-77
2022/07/10 04:17:40;;;;;;;12.80;3.08;;;;;;;14.00;100.00;102298.28;5052185;28;20040;-77
2022/07/10 04:20:06;;;;;;;14.43;3.47;;;;;;;14.04;100.00;102291.59;5041679;28;20091;-77
2022/07/10 04:22:32;;;;;;;16.40;3.47;;;;;;;14.05;100.00;102289.72;5033606;28;20056;-77
2022/07/10 04:24:58;;;;;;;9.13;2.42;;;;;;;14.10;100.00;102293.94;5051703;28;20036;-77
2022/07/10 04:27:23;;;;;;;13.13;2.75;;;;;;;14.12;100.00;102305.69;5043439;28;20135;-77
2022/07/10 04:29:49;;;;;;;11.25;3.33;;;;;;;14.21;100.00;102303.28;5034164;28;20397;-77
2022/07/10 04:32:15;;;;;;;22.13;4.78;;;;;;;14.25;100.00;102308.47;5051748;28;20034;-77
2022/07/10 04:34:41;;;;;;;16.33;3.60;;;;;;;14.22;100.00;102302.31;5038363;28;20049;-77
2022/07/10 04:37:08;;;;;;;10.70;2.88;;;;;;;14.23;100.00;102306.81;5049063;28;20387;-77
2022/07/10 04:39:34;;;;;;;14.60;3.25;;;;;;;14.10;100.00;102306.78;5024640;28;20037;-77
2022/07/10 04:42:01;;;;;;;12.88;2.80;;;;;;;14.19;100.00;102294.25;5037584;28;20447;-78
2022/07/10 04:44:27;;;;;;;12.63;3.08;;;;;;;14.13;100.00;102293.72;5020390;28;20030;-77
2022/07/10 04:46:53;;;;;;;16.17;3.47;;;;;;;14.14;100.00;102289.06;5035088;28;20086;-79
2022/07/10 04:49:18;;;;;;;22.58;3.60;;;;;;;14.23;100.00;102290.28;5033086;28;20044;-77
2022/07/10 04:51:44;;;;;;;18.13;2.90;;;;;;;14.30;100.00;102286.09;5041723;28;20041;-77
2022/07/10 04:54:09;;;;;;;13.38;3.05;;;;;;;14.26;100.00;102296.44;5007141;28;20037;-77
2022/07/10 04:56:35;;;;;;;10.38;2.65;;;;;;;14.28;100.00;102296.34;5041298;28;20063;-78
2022/07/10 04:59:01;;;;;;;12.77;3.30;;;;;;;14.32;100.00;102296.00;5027118;28;20044;-77
2022/07/10 05:01:26;;;;;;;8.75;2.95;;;;;;;14.36;100.00;102296.66;5048780;28;20500;-77
2022/07/10 05:03:52;;;;;;;16.65;2.90;;;;;;;14.44;100.00;102309.91;5053169;28;20562;-77
2022/07/10 05:06:17;;;;;;;16.05;2.97;;;;;;;14.46;100.00;102306.06;5037987;28;20532;-77
2022/07/10 05:08:43;;;;;;;13.68;2.92;;;;;;;14.39;100.00;102304.72;5039774;28;20523;-78
2022/07/10 05:11:09;;;;;;;7.07;2.67;;;;;;;14.42;100.00;102310.00;5035802;28;20033;-78
2022/07/10 05:13:35;;;;;;;10.40;2.97;;;;;;;14.45;100.00;102314.44;5038005;28;20034;-77
2022/07/10 05:16:00;;;;;;;11.68;2.83;;;;;;;14.49;100.00;102310.44;5038322;28;20551;-78
2022/07/10 05:18:25;;;;;;;11.02;3.03;;;;;;;14.56;100.00;102310.88;5005945;28;20044;-77
2022/07/10 05:20:51;;;;;;;17.77;3.35;;;;;;;14.65;100.00;102313.00;5039444;28;20053;-77
2022/07/10 05:23:16;;;;;;;18.27;3.00;;;;;;;14.63;100.00;102307.59;5038908;28;20060;-78
2022/07/10 05:25:42;;;;;;;10.23;2.90;;;;;;;14.58;100.00;102309.78;5038884;28;20029;-78
2022/07/10 05:28:08;;;;;;;10.98;3.05;;;;;;;14.69;100.00;102307.16;5039531;28;20041;-76
2022/07/10 05:30:33;;;;;;;19.73;3.28;;;;;;;14.77;100.00;102302.94;5036087;28;20095;-78
2022/07/10 05:32:59;;;;;;;12.63;3.10;;;;;;;14.81;100.00;102315.53;5042623;28;20062;-78
2022/07/10 05:35:26;;;;;;;11.60;2.88;;;;;;;14.82;100.00;102309.91;5058025;28;20136;-78
2022/07/10 05:37:52;;;;;;;15.15;3.15;;;;;;;14.81;100.00;102310.00;5054181;28;20088;-78
2022/07/10 05:40:18;;;;;;;13.63;2.90;;;;;;;14.82;100.00;102315.41;5033828;28;20393;-78
2022/07/10 05:42:44;;;;;;;10.30;3.70;;;;;;;14.91;100.00;102312.97;5054030;28;20373;-78
2022/07/10 05:45:11;;;;;;;13.90;2.85;;;;;;;14.97;100.00;102315.25;5053119;28;20373;-78
2022/07/10 05:47:36;;;;;;;10.82;3.15;;;;;;;14.91;100.00;102307.47;5031369;28;20033;-78
2022/07/10 05:50:03;;;;;;;13.00;3.40;;;;;;;14.83;100.00;102321.81;5041164;28;20053;-78
2022/07/10 05:52:28;;;;;;;10.35;3.17;;;;;;;14.85;100.00;102304.13;5048300;28;20057;-77
2022/07/10 05:54:56;;;;;;;11.75;2.95;;;;;;;14.95;100.00;102311.72;5034519;28;20061;-77
2022/07/10 05:57:22;;;;;;;19.00;3.60;;;;;;;14.99;100.00;102305.00;5032167;28;20029;-77
2022/07/10 05:59:47;;;;;;;10.32;3.10;;;;;;;14.92;100.00;102303.69;5032584;28;20112;-77
2022/07/10 06:02:13;;;;;;;14.55;3.35;;;;;;;15.01;100.00;102305.75;5033153;28;20038;-77
2022/07/10 06:04:39;;;;;;;12.45;3.30;;;;;;;15.07;100.00;102317.22;5038142;28;20030;-77
2022/07/10 06:07:04;;;;;;;10.75;3.13;;;;;;;15.04;100.00;102313.81;5041727;28;20041;-77
2022/07/10 06:09:30;;;;;;;10.40;3.13;;;;;;;15.16;100.00;102312.88;5032217;28;20025;-77
2022/07/10 06:11:56;;;;;;;12.27;3.30;;;;;;;15.29;100.00;102312.84;5030098;28;20041;-77
2022/07/10 06:14:21;;;;;;;12.70;3.42;;;;;;;15.39;100.00;102316.66;5036553;28;20041;-77
2022/07/10 06:16:47;;;;;;;15.98;3.00;;;;;;;15.46;100.00;102316.19;5050973;28;20554;-77
2022/07/10 06:19:12;;;;;;;10.95;2.85;;;;;;;15.60;100.00;102310.50;5047858;28;20041;-77
2022/07/10 06:21:38;;;;;;;13.50;3.38;;;;;;;15.62;100.00;102314.88;5047379;28;20038;-77
2022/07/10 06:24:03;;;;;;;9.48;2.60;;;;;;;15.64;100.00;102306.47;5031613;28;20037;-77
2022/07/10 06:26:29;;;;;;;10.40;2.95;;;;;;;15.90;100.00;102321.06;5050553;28;20044;-77
2022/07/10 06:28:55;;;;;;;10.48;3.50;;;;;;;15.86;100.00;102321.44;5033814;28;20485;-77
2022/07/10 06:31:20;;;;;;;16.95;3.30;;;;;;;15.86;100.00;102326.97;5017851;28;20124;-77
2022/07/10 06:33:46;;;;;;;19.40;3.80;;;;;;;15.78;100.00;102316.50;5006201;28;20046;-77
2022/07/10 06:36:12;;;;;;;9.05;2.17;;;;;;;16.11;100.00;102321.25;5039876;28;20049;-77
2022/07/10 06:38:37;;;;;;;13.20;2.92;;;;;;;16.20;100.00;102325.19;5036750;28;20469;-77
2022/07/10 06:41:03;;;;;;;14.23;2.30;;;;;;;16.14;100.00;102329.28;5051542;28;20048;-78
2022/07/10 06:43:29;;;;;;;14.00;2.70;;;;;;;16.23;100.00;102324.91;5038781;28;20043;-78
2022/07/10 06:45:55;;;;;;;15.60;2.58;;;;;;;16.15;100.00;102320.00;5048978;28;20116;-77
2022/07/10 06:48:21;;;;;;;10.63;2.55;;;;;;;16.17;100.00;102317.13;5028000;28;20038;-78
2022/07/10 06:50:47;;;;;;;16.13;2.63;;;;;;;16.37;100.00;102314.66;5036748;28;20034;-78
2022/07/10 06:53:12;;;;;;;16.02;2.63;;;;;;;16.53;100.00;102307.75;5039716;28;20132;-80
2022/07/10 06:55:38;;;;;;;14.50;2.70;;;;;;;16.56;100.00;102316.78;5041447;28;20032;-78
2022/07/10 06:58:04;;;;;;;16.50;2.45;;;;;;;16.73;100.00;102319.94;5049097;28;20049;-78
2022/07/10 07:00:29;;;;;;;16.58;2.85;;;;;;;16.98;100.00;102309.66;5050655;28;20133;-78
2022/07/10 07:02:55;;;;;;;19.17;2.90;;;;;;;16.96;100.00;102319.97;5045587;28;20048;-77
2022/07/10 07:05:21;;;;;;;12.00;2.42;;;;;;;17.07;100.00;102321.84;5038477;28;20048;-78
2022/07/10 07:07:46;;;;;;;10.07;2.20;;;;;;;17.24;100.00;102317.66;5046721;28;20044;-77
2022/07/10 07:10:12;;;;;;;18.17;2.13;;;;;;;17.30;100.00;102319.94;5035484;28;20046;-77
2022/07/10 07:12:38;;;;;;;13.95;2.47;;;;;;;17.06;100.00;102322.84;5022671;28;20064;-78
2022/07/10 07:15:04;;;;;;;16.17;2.65;;;;;;;17.16;100.00;102320.19;5024427;28;20036;-77
2022/07/10 07:17:34;;;;;;;7.70;1.83;;;;;;;17.59;100.00;102322.09;5052992;28;20120;-80
2022/07/10 07:25:29;;;;;;;13.10;2.20;;;;;;;17.32;100.00;102317.03;5041740;28;20116;-78
2022/07/10 07:27:55;;;;;;;18.20;2.60;;;;;;;17.20;100.00;102310.63;5042261;28;20125;-78
2022/07/10 07:30:21;;;;;;;20.83;2.28;;;;;;;17.20;100.00;102325.34;5037262;28;20041;-77
2022/07/10 07:32:47;;;;;;;9.02;2.05;;;;;;;17.26;100.00;102322.03;5047636;28;20037;-78
2022/07/10 07:35:15;;;;;;;16.27;1.92;;;;;;;17.24;100.00;102323.19;5051492;28;20095;-78
2022/07/10 07:37:44;;;;;;;12.27;2.03;;;;;;;17.19;100.00;102329.13;5027229;28;20094;-77
2022/07/10 07:40:22;;;;;;;12.55;2.85;;;;;;;16.88;100.00;102328.03;5044061;28;20029;-79
2022/07/10 07:42:55;;;;;;;12.90;2.45;;;;;;;17.00;100.00;102321.47;5062901;28;20118;-78
2022/07/10 07:45:22;;;;;;;8.73;1.95;;;;;;;16.99;100.00;102328.03;5026288;28;20060;-78
2022/07/10 07:47:49;;;;;;;13.45;2.03;;;;;;;17.01;100.00;102328.78;5043573;28;20104;-77
2022/07/10 07:50:17;;;;;;;10.60;1.67;;;;;;;17.01;100.00;102323.22;5040588;28;20033;-77
2022/07/10 07:52:43;;;;;;;18.90;1.92;;;;;;;17.06;100.00;102322.84;5046590;28;20049;-79
2022/07/10 07:55:10;;;;;;;12.82;2.05;;;;;;;17.02;100.00;102313.94;5048031;28;20055;-78
2022/07/10 07:57:36;;;;;;;13.30;2.28;;;;;;;17.06;100.00;102312.66;5014359;28;20033;-78
2022/07/10 08:00:05;;;;;;;10.27;1.92;;;;;;;17.09;100.00;102317.94;5048424;28;20104;-78
2022/07/10 08:02:30;;;;;;;12.43;2.00;;;;;;;17.22;100.00;102317.78;5047595;28;20043;-77
2022/07/10 08:04:56;;;;;;;15.32;2.42;;;;;;;17.36;100.00;102319.38;5047830;28;20485;-77
2022/07/10 08:07:21;;;;;;;11.25;2.25;;;;;;;17.36;100.00;102322.16;5028085;28;20128;-77
2022/07/10 08:09:48;;;;;;;21.55;2.17;;;;;;;17.30;100.00;102316.25;5035928;28;20540;-77
2022/07/10 08:12:14;;;;;;;12.40;1.73;;;;;;;17.41;100.00;102319.00;5028671;28;20030;-77
2022/07/10 08:14:39;;;;;;;11.82;1.67;;;;;;;17.57;100.00;102325.00;5045215;28;20112;-78
2022/07/10 08:17:05;;;;;;;12.32;2.22;;;;;;;17.37;100.00;102317.50;5047365;28;20044;-78
2022/07/10 08:19:31;;;;;;;8.73;2.10;;;;;;;17.33;100.00;102319.66;5013748;28;20512;-77
2022/07/10 08:21:56;;;;;;;10.57;1.92;;;;;;;17.53;100.00;102317.06;5041034;28;20065;-77
2022/07/10 08:24:22;;;;;;;10.57;1.80;;;;;;;17.60;100.00;102319.19;5040152;28;20040;-77
2022/07/10 08:26:47;;;;;;;16.70;1.63;;;;;;;17.61;100.00;102315.41;5038675;28;20044;-77
2022/07/10 08:29:13;;;;;;;11.55;1.77;;;;;;;17.59;100.00;102319.31;5025961;28;20044;-77
2022/07/10 08:31:39;;;;;;;15.43;2.10;;;;;;;17.55;100.00;102315.94;5029023;28;20036;-78
2022/07/10 08:34:05;;;;;;;11.68;1.75;;;;;;;17.52;100.00;102326.41;5016827;28;20072;-77
2022/07/10 08:36:31;;;;;;;17.73;2.20;;;;;;;17.30;100.00;102319.94;5036938;28;20100;-77
2022/07/10 08:38:58;;;;;;;11.98;2.50;;;;;;;17.36;100.00;102327.69;5028744;28;20128;-77
2022/07/10 08:41:26;;;;;;;7.82;2.08;;;;;;;17.52;100.00;102327.28;5046202;28;20514;-77
2022/07/10 08:43:52;;;;;;;14.10;2.28;;;;;;;17.51;100.00;102314.47;5048798;28;20036;-77
2022/07/10 08:46:18;;;;;;;17.88;2.60;;;;;;;17.55;100.00;102313.16;5036627;28;20041;-77
2022/07/10 08:48:53;;;;;;;19.60;2.22;;;;;;;17.57;100.00;102319.44;5043449;28;20033;-77
2022/07/10 08:51:48;;;;;;;11.43;1.88;;;;;;;17.48;100.00;102323.03;5049383;28;20033;-76
2022/07/10 08:54:15;;;;;;;10.60;2.15;;;;;;;17.41;100.00;102325.44;5036537;28;20485;-76
2022/07/10 08:56:41;;;;;;;12.15;1.92;;;;;;;17.40;100.00;102323.66;5036923;28;20057;-77
2022/07/10 08:59:07;;;;;;;9.90;1.70;;;;;;;17.31;100.00;102323.56;5042117;28;20106;-79
2022/07/10 09:01:33;;;;;;;13.70;2.75;;;;;;;17.30;100.00;102316.25;5013143;28;20044;-78
2022/07/10 09:03:59;;;;;;;16.95;2.47;;;;;;;17.42;100.00;102323.53;5041004;28;20037;-78
2022/07/10 09:06:27;;;;;;;16.17;2.35;;;;;;;17.24;100.00;102326.84;5051010;28;20045;-78
2022/07/10 09:09:00;;;;;;;10.77;2.55;;;;;;;17.32;100.00;102326.19;5042849;28;20048;-78
2022/07/10 09:11:28;;;;;;;16.13;2.40;;;;;;;17.36;100.00;102321.28;5049493;28;20033;-78
2022/07/10 09:13:56;;;;;;;17.60;3.03;;;;;;;17.35;100.00;102322.28;5039682;28;20095;-78
2022/07/10 09:16:27;;;;;;;8.43;2.22;;;;;;;17.25;100.00;102320.31;5045611;28;20025;-78
2022/07/10 09:18:54;;;;;;;13.35;2.45;;;;;;;17.36;100.00;102319.38;5040865;28;20091;-77
2022/07/10 09:21:21;;;;;;;12.93;2.45;;;;;;;17.32;100.00;102317.03;5051128;28;20040;-77
2022/07/10 09:23:47;;;;;;;9.38;2.38;;;;;;;17.31;100.00;102324.44;5049585;28;20025;-78
2022/07/10 09:26:12;;;;;;;12.07;2.97;;;;;;;17.45;100.00;102315.84;5036196;28;20061;-77
2022/07/10 09:28:38;;;;;;;15.32;3.40;;;;;;;17.51;100.00;102308.00;5029317;28;20088;-77
2022/07/10 09:31:03;;;;;;;11.43;2.83;;;;;;;17.58;100.00;102306.50;5046744;28;20078;-77
2022/07/10 09:33:30;;;;;;;12.27;2.88;;;;;;;17.92;100.00;102306.34;5041424;28;20068;-76
2022/07/10 09:36:05;;;;;;;45.70;3.80;;;;;;;18.03;100.00;102302.66;5033363;28;20053;-77
2022/07/10 09:38:49;;;;;;;13.30;2.88;;;;;;;18.17;100.00;102294.88;5026997;28;20045;-76
2022/07/10 09:41:21;;;;;;;12.95;2.97;;;;;;;18.03;100.00;102300.75;5037533;28;20034;-76
2022/07/10 09:43:57;;;;;;;8.10;2.45;;;;;;;17.98;100.00;102298.38;5039055;28;20037;-76
2022/07/10 09:46:25;;;;;;;17.80;3.55;;;;;;;18.03;100.00;102299.88;5035247;28;20041;-76
2022/07/10 09:49:06;;;;;;;17.13;2.88;;;;;;;18.05;100.00;102292.31;5035620;28;20044;-77
2022/07/10 09:51:34;;;;;;;12.20;2.55;;;;;;;18.30;100.00;102285.44;5041473;28;20082;-77
2022/07/10 09:54:02;;;;;;;11.70;2.30;;;;;;;18.55;100.00;102287.78;5025553;28;20416;-77
2022/07/10 09:56:33;;;;;;;11.85;2.67;;;;;;;19.47;100.00;102286.75;5041909;28;20029;-77
2022/07/10 09:59:01;;;;;;;11.73;2.05;;;;;;;20.84;96.51;102278.22;5044709;28;20036;-77
2022/07/10 10:01:27;;;;;;;11.73;2.53;;;;;;;20.62;100.00;102276.66;5041019;28;20108;-79
2022/07/10 10:03:58;;;;;;;10.77;2.33;;;;;;;20.05;100.00;102281.38;5020275;28;20041;-78
2022/07/10 10:06:30;;;;;;;9.13;1.90;;;;;;;19.96;100.00;102274.81;5056518;28;20076;-79
2022/07/10 10:09:23;;;;;;;11.23;2.40;;;;;;;20.29;100.00;102276.19;5043008;28;20049;-79
2022/07/10 10:11:53;;;;;;;6.13;1.83;;;;;;;20.69;99.83;102272.28;5054594;28;20047;-78
2022/07/10 10:14:21;;;;;;;11.48;2.45;;;;;;;21.04;96.36;102273.41;5045360;28;20033;-79
2022/07/10 10:16:47;;;;;;;8.55;2.35;;;;;;;20.92;94.39;102272.75;5051464;28;20048;-77
2022/07/10 10:21:59;;;;;;;8.07;2.42;;;;;;;19.81;100.00;102278.03;5051928;28;20057;-78
2022/07/10 10:24:26;;;;;;;6.57;1.80;;;;;;;19.54;100.00;102273.16;5035790;28;20392;-78
2022/07/10 10:26:52;;;;;;;9.73;2.20;;;;;;;19.27;100.00;102280.31;5021916;28;20048;-78
2022/07/10 10:29:18;;;;;;;10.00;2.13;;;;;;;19.28;100.00;102276.53;5051704;28;20041;-78
2022/07/10 10:31:44;;;;;;;7.90;2.20;;;;;;;19.16;100.00;102274.88;5049750;28;20369;-78
2022/07/10 10:34:09;;;;;;;12.45;2.28;;;;;;;18.90;100.00;102274.53;5034765;28;20053;-78
2022/07/10 10:36:35;;;;;;;8.50;2.20;;;;;;;18.74;100.00;102273.13;5055975;28;20037;-78
2022/07/10 10:39:19;;;;;;;6.88;2.15;;;;;;;18.79;100.00;102269.03;5042795;28;20037;-78
2022/07/10 10:41:48;;;;;;;7.75;2.17;;;;;;;18.61;100.00;102266.06;5049569;28;20042;-78
2022/07/10 10:44:17;;;;;;;8.27;1.95;;;;;;;18.90;100.00;102261.50;5038240;28;20041;-78
2022/07/10 10:46:56;;;;;;;12.27;2.55;;;;;;;19.36;100.00;102263.81;5048336;28;20205;-78
2022/07/10 10:49:25;;;;;;;14.63;2.40;;;;;;;19.93;100.00;102264.84;5039980;28;20068;-78
2022/07/10 10:52:03;;;;;;;4.43;1.92;;;;;;;20.36;100.00;102271.75;5039785;28;20040;-78
2022/07/10 10:55:07;;;;;;;7.93;1.92;;;;;;;20.55;99.16;102262.47;5054164;28;20033;-78
2022/07/10 10:57:36;;;;;;;6.88;2.20;;;;;;;20.71;97.36;102269.31;5050660;28;20067;-78
2022/07/10 11:00:07;;;;;;;8.43;1.77;;;;;;;20.91;97.72;102258.97;5044394;28;20044;-78
2022/07/10 11:02:40;;;;;;;7.60;1.80;;;;;;;20.82;97.41;102252.41;5037309;28;20033;-77
2022/07/10 11:05:18;;;;;;;15.10;2.17;;;;;;;21.25;93.42;102259.22;5020516;28;20044;-77
2022/07/10 11:07:58;;;;;;;12.00;2.17;;;;;;;21.01;98.14;102259.78;5034931;28;20068;-77
2022/07/10 11:10:44;;;;;;;9.70;2.40;;;;;;;21.16;95.87;102254.56;5039480;28;20496;-77
2022/07/10 11:13:14;;;;;;;4.57;1.80;;;;;;;20.84;96.20;102255.94;5042399;28;20116;-78
2022/07/10 11:15:52;;;;;;;6.35;2.10;;;;;;;20.45;99.80;102255.22;5046793;28;20040;-77
2022/07/10 11:18:28;;;;;;;8.85;2.00;;;;;;;21.09;96.62;102254.31;5041949;28;20080;-76
2022/07/10 11:20:54;;;;;;;11.88;2.63;;;;;;;21.04;96.82;102248.34;5037069;28;20112;-77
2022/07/10 11:23:43;;;;;;;8.32;2.40;;;;;;;20.77;95.72;102257.56;5036504;28;20183;-77